KRZR

Cleveland Regional Jetport Airport

Cleveland, Tennessee, USA
METAR KRZR 231035Z AUTO 00000KT 1/4SM FG OVC002 18/18 A3008 RMK A01
Observed Flight Rules
May-23 @ 10:35 UTC (36 minutes ago) Instrument Flight Rules
Visibility Clouds Conditions
1/4 miles
  • Overcast at 200' AGL
  • Fog
Temperatures Readings
Current 18°C / 64°F
Dewpoint 18°C / 64°F
Humidity 100%
Altimeter 30.08" Hg
Pressure 1019 hPa
Elevation 263
METAR KRZR 231035Z AUTO 00000KT 1/4SM FG OVC002 18/18 A3008 RMK A01
Observed Flight Rules
May-23 @ 10:35 UTC
(36 minutes ago)
LIFR
Clouds
  • Overcast at 200' AGL
Conditions
  • Fog
Temperature Dewpoint
18°C / 64°F 18°C / 64°F
Humidity Altimeter Pressure
100% 30.08" Hg 1019 hPa